Airfield :
LOGIN :

Register | Disclaimer

   EN    FR    IT 

 










Legend :    VFR   Marginal VFR   IFR   Intensive IFR   Very Intensive IFR
Visi :
Ceiling :
>= 8 km
>= 3000ft
5 to 8 km
1000 to 3000 ft
1500m to 5 km
500 to 1000 ft
800 to 1500m
200 to 500 ft
< 800m
< 200 ft
Symbols :   Thunderstorms  Fog  Heavy snow  Heavy precipitations  Wind > 20 kt
SIGMETs :     Misc.  Thunderstorms  Icing  Turbulence  Mountain Waves  Volcanic Ashes







- Airport Elevation : 117 ft
- IATA code : NWI
- Download approach charts


EGSH - Norwich

CURRENT METAR :
  • 151220Z 24011KT 190V270 9999 SCT031 24/15 Q1015 NOSIG

EXPIRED METARs :
  • 151150Z 24015KT 210V280 9999 SCT031 23/15 Q1016 NOSIG
  • 151120Z 25013KT 220V280 9999 SCT031 22/15 Q1016 NOSIG
  • 151050Z 24014KT 210V270 9999 BKN026 22/15 Q1016 NOSIG
  • 151020Z 23010KT 190V270 9999 FEW020 22/15 Q1016 NOSIG
  • 150950Z 21010KT 9999 FEW020 21/15 Q1016

TAF TAF EGSH
Valid from the 15 at 12:00 until the 15 at 21:00 UTC


151057Z 1512/1521 23012KT 9999 SCT030
ATIS : +44 1603 420 640
No reported NOTAMs for that airfield.



MET'MAP, your aeronautical weather chart ! - Copyright ORBIFLY December 2007 - Disclaimer

ORBIFLY MET'MAP TEAM :

Programming & Development : Alexandra Zaïnal
Concept & Development : Baudouin d'Aumeries
Co-Development & Prog : Marc-Olivier Méhu
Technical & hardware support : Manuel Goepfert

Contact : metmap@orbifly.com




SOURCES & CREDITS :

   NOAA